Time;durP1;ratioP1;P1;durP2;ratioP2;P2;SDS_P1;SDS_P2;PMS_P1;PMS_P2;Temp;Humidity;BMP_temperature;BMP_pressure;BME280_temperature;BME280_humidity;BME280_pressure;Samples;Min_cycle;Max_cycle;Signal;HPM_P1;HPM_P2
2023/05/05 00:00:12;;;;;;;;;;;;;;;;;;5116098;28;19914;-68
2023/05/05 00:02:38;;;;;;;;;;;;;;;;;;5134390;28;19993;-68
2023/05/05 00:05:04;;;;;;;;;;;;;;;;;;5134479;28;20354;-68
2023/05/05 00:07:29;;;;;;;;;;;;;;;;;;5134125;28;20294;-68
2023/05/05 00:09:55;;;;;;;;;;;;;;;;;;5134527;28;19912;-68
2023/05/05 00:12:21;;;;;;;;;;;;;;;;;;5134455;28;19914;-68
2023/05/05 00:14:47;;;;;;;;;;;;;;;;;;5134040;28;19914;-68
2023/05/05 00:17:13;;;;;;;;;;;;;;;;;;5134332;28;19923;-68
2023/05/05 00:19:39;;;;;;;;;;;;;;;;;;5134598;28;19908;-68
2023/05/05 00:22:05;;;;;;;;;;;;;;;;;;5134640;27;19911;-68
2023/05/05 00:24:31;;;;;;;;;;;;;;;;;;5138270;27;19933;-68
2023/05/05 00:26:58;;;;;;;;;;;;;;;;;;5119934;27;20338;-68
2023/05/05 00:29:24;;;;;;;;;;;;;;;;;;5138148;27;20002;-68
2023/05/05 00:31:50;;;;;;;;;;;;;;;;;;5138105;27;19912;-68
2023/05/05 00:34:16;;;;;;;;;;;;;;;;;;5138116;27;19907;-68
2023/05/05 00:36:42;;;;;;;;;;;;;;;;;;5115500;28;19965;-68
2023/05/05 00:39:08;;;;;;;;;;;;;;;;;;5117391;28;19914;-68
2023/05/05 00:41:34;;;;;;;;;;;;;;;;;;5117594;28;19908;-68
2023/05/05 00:44:00;;;;;;;;;;;;;;;;;;5116915;28;19907;-68
2023/05/05 00:46:26;;;;;;;;;;;;;;;;;;5117271;28;19914;-68
2023/05/05 00:48:52;;;;;;;;;;;;;;;;;;5117191;28;19908;-68
2023/05/05 00:51:18;;;;;;;;;;;;;;;;;;5116925;28;19998;-68
2023/05/05 00:53:44;;;;;;;;;;;;;;;;;;5117130;28;19952;-68
2023/05/05 00:56:10;;;;;;;;;;;;;;;;;;5117032;28;19916;-68
2023/05/05 00:58:36;;;;;;;;;;;;;;;;;;5115379;28;19915;-69
2023/05/05 01:01:02;;;;;;;;;;;;;;;;;;5116996;28;19919;-67
2023/05/05 01:03:28;;;;;;;;;;;;;;;;;;5115660;28;20006;-67
2023/05/05 01:05:54;;;;;;;;;;;;;;;;;;5116507;28;19911;-67
2023/05/05 01:08:20;;;;;;;;;;;;;;;;;;5116869;28;19929;-68
2023/05/05 01:10:46;;;;;;;;;;;;;;;;;;5116451;28;20381;-68
2023/05/05 01:13:12;;;;;;;;;;;;;;;;;;5117112;28;19907;-68
2023/05/05 01:15:38;;;;;;;;;;;;;;;;;;5116697;28;19919;-68
2023/05/05 01:18:04;;;;;;;;;;;;;;;;;;5116208;28;19911;-68
2023/05/05 01:20:30;;;;;;;;;;;;;;;;;;5116677;28;19915;-68
2023/05/05 01:22:56;;;;;;;;;;;;;;;;;;5116578;28;19923;-68
2023/05/05 01:25:22;;;;;;;;;;;;;;;;;;5114883;28;20406;-69
2023/05/05 01:27:48;;;;;;;;;;;;;;;;;;5116472;28;19908;-68
2023/05/05 01:30:14;;;;;;;;;;;;;;;;;;5116418;28;19907;-68
2023/05/05 01:32:40;;;;;;;;;;;;;;;;;;5115940;28;19915;-68
2023/05/05 01:35:06;;;;;;;;;;;;;;;;;;5116760;27;19990;-67
2023/05/05 01:37:32;;;;;;;;;;;;;;;;;;5136829;27;19915;-68
2023/05/05 01:39:58;;;;;;;;;;;;;;;;;;5136452;27;19908;-68
2023/05/05 01:42:23;;;;;;;;;;;;;;;;;;5136917;27;19912;-68
2023/05/05 01:44:50;;;;;;;;;;;;;;;;;;5136629;27;19907;-68
2023/05/05 01:47:16;;;;;;;;;;;;;;;;;;5136344;27;19912;-68
2023/05/05 01:49:42;;;;;;;;;;;;;;;;;;5136576;27;19914;-68
2023/05/05 01:52:08;;;;;;;;;;;;;;;;;;5136629;27;19958;-68
2023/05/05 01:54:34;;;;;;;;;;;;;;;;;;5136137;27;20004;-68
2023/05/05 01:57:00;;;;;;;;;;;;;;;;;;5136449;27;20321;-68
2023/05/05 01:59:26;;;;;;;;;;;;;;;;;;5136423;27;19952;-68
2023/05/05 02:01:52;;;;;;;;;;;;;;;;;;5117578;27;19907;-68
2023/05/05 02:04:21;;;;;;;;;;;;;;;;;;5136490;27;19955;-69
2023/05/05 02:06:49;;;;;;;;;;;;;;;;;;5136332;27;19912;-69
2023/05/05 02:09:15;;;;;;;;;;;;;;;;;;5135798;27;19907;-69
2023/05/05 02:11:41;;;;;;;;;;;;;;;;;;5136251;27;19907;-68
2023/05/05 02:14:07;;;;;;;;;;;;;;;;;;5117305;27;19908;-68
2023/05/05 02:16:33;;;;;;;;;;;;;;;;;;5136063;27;19915;-69
2023/05/05 02:18:59;;;;;;;;;;;;;;;;;;5136021;27;20324;-69
2023/05/05 02:21:25;;;;;;;;;;;;;;;;;;5135860;27;19908;-68
2023/05/05 02:23:50;;;;;;;;;;;;;;;;;;5136249;27;19980;-68
2023/05/05 02:26:16;;;;;;;;;;;;;;;;;;5136332;27;20355;-68
2023/05/05 02:28:42;;;;;;;;;;;;;;;;;;5135492;27;20340;-69
2023/05/05 02:31:08;;;;;;;;;;;;;;;;;;5135845;27;19907;-69
2023/05/05 02:33:34;;;;;;;;;;;;;;;;;;5135766;27;20394;-69
2023/05/05 02:36:00;;;;;;;;;;;;;;;;;;5135120;27;19920;-69
2023/05/05 02:38:26;;;;;;;;;;;;;;;;;;5135731;27;19943;-69
2023/05/05 02:40:52;;;;;;;;;;;;;;;;;;5135671;27;20253;-69
2023/05/05 02:43:18;;;;;;;;;;;;;;;;;;5135170;27;19911;-69
2023/05/05 02:45:44;;;;;;;;;;;;;;;;;;5134964;27;19951;-69
2023/05/05 02:48:11;;;;;;;;;;;;;;;;;;5135315;27;19915;-69
2023/05/05 02:50:37;;;;;;;;;;;;;;;;;;5135155;27;19957;-69
2023/05/05 02:53:03;;;;;;;;;;;;;;;;;;5135451;27;19907;-69
2023/05/05 02:55:29;;;;;;;;;;;;;;;;;;5135316;27;19919;-68
2023/05/05 02:57:55;;;;;;;;;;;;;;;;;;5134893;27;19976;-68
2023/05/05 03:00:21;;;;;;;;;;;;;;;;;;5135396;27;19908;-68
2023/05/05 03:02:47;;;;;;;;;;;;;;;;;;5135435;27;19907;-68
2023/05/05 03:05:13;;;;;;;;;;;;;;;;;;5116362;27;19946;-68
2023/05/05 03:07:39;;;;;;;;;;;;;;;;;;5135188;27;19908;-68
2023/05/05 03:10:05;;;;;;;;;;;;;;;;;;5135193;27;19908;-69
2023/05/05 03:12:31;;;;;;;;;;;;;;;;;;5134767;27;20430;-68
2023/05/05 03:14:57;;;;;;;;;;;;;;;;;;5135060;27;20432;-69
2023/05/05 03:17:23;;;;;;;;;;;;;;;;;;5135008;27;20379;-69
2023/05/05 03:19:49;;;;;;;;;;;;;;;;;;5135069;27;20431;-69
2023/05/05 03:22:15;;;;;;;;;;;;;;;;;;5116474;27;19911;-68
2023/05/05 03:24:41;;;;;;;;;;;;;;;;;;5134568;27;19907;-69
2023/05/05 03:27:07;;;;;;;;;;;;;;;;;;5135054;27;19915;-69
2023/05/05 03:29:32;;;;;;;;;;;;;;;;;;5134890;27;19915;-69
2023/05/05 03:32:00;;;;;;;;;;;;;;;;;;5134472;27;19915;-69
2023/05/05 03:34:26;;;;;;;;;;;;;;;;;;5135133;27;19945;-69
2023/05/05 03:36:52;;;;;;;;;;;;;;;;;;5116100;28;19919;-69
2023/05/05 03:39:18;;;;;;;;;;;;;;;;;;5134383;28;20000;-69
2023/05/05 03:41:44;;;;;;;;;;;;;;;;;;5134924;28;20382;-67
2023/05/05 03:44:10;;;;;;;;;;;;;;;;;;5134758;28;19960;-69
2023/05/05 03:46:35;;;;;;;;;;;;;;;;;;5134442;28;19911;-69
2023/05/05 03:49:01;;;;;;;;;;;;;;;;;;5134680;28;19907;-69
2023/05/05 03:51:27;;;;;;;;;;;;;;;;;;5134789;28;19914;-69
2023/05/05 03:53:53;;;;;;;;;;;;;;;;;;5134154;28;19907;-68
2023/05/05 03:56:19;;;;;;;;;;;;;;;;;;5134855;27;19960;-67
2023/05/05 03:58:45;;;;;;;;;;;;;;;;;;5119789;27;20291;-67
2023/05/05 04:01:11;;;;;;;;;;;;;;;;;;5138371;27;19914;-68
2023/05/05 04:03:38;;;;;;;;;;;;;;;;;;5120410;27;19914;-69
2023/05/05 04:06:04;;;;;;;;;;;;;;;;;;5120289;27;19952;-69
2023/05/05 04:08:30;;;;;;;;;;;;;;;;;;5138184;27;20019;-69
2023/05/05 04:10:56;;;;;;;;;;;;;;;;;;5138666;27;20385;-69
2023/05/05 04:13:22;;;;;;;;;;;;;;;;;;5138338;27;20279;-68
2023/05/05 04:15:48;;;;;;;;;;;;;;;;;;5138061;27;20279;-70
2023/05/05 04:18:14;;;;;;;;;;;;;;;;;;5137790;27;20367;-68
2023/05/05 04:20:40;;;;;;;;;;;;;;;;;;5138121;27;19949;-70
2023/05/05 04:23:06;;;;;;;;;;;;;;;;;;5138300;27;20015;-68
2023/05/05 04:25:32;;;;;;;;;;;;;;;;;;5138285;27;20386;-69
2023/05/05 04:27:58;;;;;;;;;;;;;;;;;;5119449;27;19907;-69
2023/05/05 04:30:24;;;;;;;;;;;;;;;;;;5138339;27;20333;-68
2023/05/05 04:32:50;;;;;;;;;;;;;;;;;;5138072;27;20279;-69
2023/05/05 04:35:16;;;;;;;;;;;;;;;;;;5137467;27;19930;-69
2023/05/05 04:37:42;;;;;;;;;;;;;;;;;;5138417;27;19907;-68
2023/05/05 04:40:08;;;;;;;;;;;;;;;;;;5137930;27;19907;-69
2023/05/05 04:42:35;;;;;;;;;;;;;;;;;;5137588;27;19907;-69
2023/05/05 04:45:01;;;;;;;;;;;;;;;;;;5138062;27;19914;-67
2023/05/05 04:47:27;;;;;;;;;;;;;;;;;;5137845;27;19908;-69
2023/05/05 04:49:53;;;;;;;;;;;;;;;;;;5137565;27;19907;-68
2023/05/05 04:52:19;;;;;;;;;;;;;;;;;;5119371;27;19973;-69
2023/05/05 04:54:45;;;;;;;;;;;;;;;;;;5137711;27;19907;-69
2023/05/05 04:57:11;;;;;;;;;;;;;;;;;;5137202;27;19920;-68
2023/05/05 04:59:37;;;;;;;;;;;;;;;;;;5138145;27;20276;-68
2023/05/05 05:02:02;;;;;;;;;;;;;;;;;;5137636;27;20283;-69
2023/05/05 05:04:28;;;;;;;;;;;;;;;;;;5137115;27;20340;-69
2023/05/05 05:06:54;;;;;;;;;;;;;;;;;;5137518;27;19915;-68
2023/05/05 05:09:20;;;;;;;;;;;;;;;;;;5136964;27;19908;-69
2023/05/05 05:11:46;;;;;;;;;;;;;;;;;;5117275;27;19908;-68
2023/05/05 05:14:12;;;;;;;;;;;;;;;;;;5118839;27;19912;-70
2023/05/05 05:16:38;;;;;;;;;;;;;;;;;;5100500;27;19963;-68
2023/05/05 05:19:04;;;;;;;;;;;;;;;;;;5123625;27;19951;-68
2023/05/05 05:21:30;;;;;;;;;;;;;;;;;;5132944;27;19919;-67
2023/05/05 05:23:56;;;;;;;;;;;;;;;;;;5117404;27;20364;-64
2023/05/05 05:26:22;;;;;;;;;;;;;;;;;;5126153;27;19918;-65
2023/05/05 05:28:48;;;;;;;;;;;;;;;;;;5101958;27;19912;-66
2023/05/05 05:31:14;;;;;;;;;;;;;;;;;;5125559;27;19922;-68
2023/05/05 05:33:40;;;;;;;;;;;;;;;;;;5124721;27;20395;-68
2023/05/05 05:36:06;;;;;;;;;;;;;;;;;;5116669;27;19963;-68
2023/05/05 05:38:32;;;;;;;;;;;;;;;;;;5114172;27;20353;-64
2023/05/05 05:40:58;;;;;;;;;;;;;;;;;;5132765;27;19908;-65
2023/05/05 05:43:24;;;;;;;;;;;;;;;;;;5118827;27;19919;-67
2023/05/05 05:45:50;;;;;;;;;;;;;;;;;;5099205;28;19911;-67
2023/05/05 05:48:16;;;;;;;;;;;;;;;;;;5115947;27;20325;-66
2023/05/05 05:50:42;;;;;;;;;;;;;;;;;;5127597;27;19916;-65
2023/05/05 05:53:08;;;;;;;;;;;;;;;;;;5125840;27;19908;-66
2023/05/05 05:55:34;;;;;;;;;;;;;;;;;;5123147;27;19965;-66
2023/05/05 05:58:00;;;;;;;;;;;;;;;;;;5111282;27;19908;-65
2023/05/05 06:00:26;;;;;;;;;;;;;;;;;;5107693;28;20470;-65
2023/05/05 06:02:52;;;;;;;;;;;;;;;;;;5112593;27;20359;-65
2023/05/05 06:05:18;;;;;;;;;;;;;;;;;;5097394;27;20114;-67
2023/05/05 06:07:44;;;;;;;;;;;;;;;;;;5115678;27;20481;-65
2023/05/05 06:10:10;;;;;;;;;;;;;;;;;;5108493;28;19908;-67
2023/05/05 06:12:36;;;;;;;;;;;;;;;;;;5116654;27;19912;-65
2023/05/05 06:15:02;;;;;;;;;;;;;;;;;;5104399;28;19939;-64
2023/05/05 06:17:28;;;;;;;;;;;;;;;;;;5131357;27;19915;-64
2023/05/05 06:19:54;;;;;;;;;;;;;;;;;;5129202;27;19914;-67
2023/05/05 06:22:20;;;;;;;;;;;;;;;;;;5122720;27;19911;-65
2023/05/05 06:24:46;;;;;;;;;;;;;;;;;;5113240;27;20387;-66
2023/05/05 06:27:12;;;;;;;;;;;;;;;;;;5100091;27;19919;-64
2023/05/05 06:29:38;;;;;;;;;;;;;;;;;;5130917;27;20418;-64
2023/05/05 06:32:07;;;;;;;;;;;;;;;;;;5117188;27;19919;-66
2023/05/05 06:34:33;;;;;;;;;;;;;;;;;;5112179;28;20416;-65
2023/05/05 06:36:59;;;;;;;;;;;;;;;;;;5106342;27;20004;-64
2023/05/05 06:39:25;;;;;;;;;;;;;;;;;;5132110;27;20026;-65
2023/05/05 06:41:51;;;;;;;;;;;;;;;;;;5108206;28;19939;-63
2023/05/05 06:44:17;;;;;;;;;;;;;;;;;;5119439;27;19911;-65
2023/05/05 06:46:43;;;;;;;;;;;;;;;;;;5131520;27;19907;-65
2023/05/05 06:49:09;;;;;;;;;;;;;;;;;;5106651;28;20562;-66
2023/05/05 06:53:36;;;;;;;;;;;;;;;;;;5086233;27;19927;-65
2023/05/05 06:56:57;;;;;;;;;;;;;;;;;;5111148;27;20180;-65
2023/05/05 07:01:42;;;;;;;;;;;;;;;;;;5085944;27;19912;-65
2023/05/05 07:04:08;;;;;;;;;;;;;;;;;;5064582;28;19913;-67
2023/05/05 07:06:58;;;;;;;;;;;;;;;;;;5082986;27;19917;-65
2023/05/05 07:09:24;;;;;;;;;;;;;;;;;;5078289;28;19955;-66
2023/05/05 07:11:50;;;;;;;;;;;;;;;;;;5045581;28;19956;-66
2023/05/05 07:16:13;;;;;;;;;;;;;;;;;;5083050;28;19919;-66
2023/05/05 07:18:39;;;;;;;;;;;;;;;;;;5079756;28;19916;-65
2023/05/05 07:21:05;;;;;;;;;;;;;;;;;;5083158;28;19913;-65
2023/05/05 07:23:31;;;;;;;;;;;;;;;;;;5084704;28;19919;-65
2023/05/05 07:25:57;;;;;;;;;;;;;;;;;;5085175;28;19912;-66
2023/05/05 07:29:41;;;;;;;;;;;;;;;;;;5049903;27;20360;-66
2023/05/05 07:32:07;;;;;;;;;;;;;;;;;;5063792;28;19919;-66
2023/05/05 07:34:33;;;;;;;;;;;;;;;;;;5063573;28;19968;-65
2023/05/05 07:37:38;;;;;;;;;;;;;;;;;;5133701;27;20295;-66
2023/05/05 07:40:04;;;;;;;;;;;;;;;;;;5123423;28;19912;-68
2023/05/05 07:43:22;;;;;;;;;;;;;;;;;;5107389;27;19912;-65
2023/05/05 07:45:48;;;;;;;;;;;;;;;;;;5106345;28;19918;-66
2023/05/05 07:50:41;;;;;;;;;;;;;;;;;;5088647;27;19926;-65
2023/05/05 07:53:07;;;;;;;;;;;;;;;;;;5086543;28;20440;-65
2023/05/05 07:55:33;;;;;;;;;;;;;;;;;;5086971;28;19961;-65
2023/05/05 07:57:59;;;;;;;;;;;;;;;;;;5089432;28;19909;-65
2023/05/05 08:00:25;;;;;;;;;;;;;;;;;;5087750;28;20391;-66
2023/05/05 08:02:51;;;;;;;;;;;;;;;;;;5088269;28;19912;-66
2023/05/05 08:06:57;;;;;;;;;;;;;;;;;;5140597;27;19919;-65
2023/05/05 08:09:23;;;;;;;;;;;;;;;;;;5123375;27;20368;-65
2023/05/05 08:13:38;;;;;;;;;;;;;;;;;;5140570;27;19924;-65
2023/05/05 08:19:07;;;;;;;;;;;;;;;;;;5130590;27;19926;-65
2023/05/05 08:21:33;;;;;;;;;;;;;;;;;;5127443;28;19916;-64
2023/05/05 08:23:59;;;;;;;;;;;;;;;;;;5120479;28;19972;-66
2023/05/05 08:26:25;;;;;;;;;;;;;;;;;;5105029;28;20431;-66
2023/05/05 08:30:41;;;;;;;;;;;;;;;;;;5085278;27;19921;-65
2023/05/05 08:33:24;;;;;;;;;;;;;;;;;;5134490;27;19919;-64
2023/05/05 08:36:57;;;;;;;;;;;;;;;;;;5067251;27;19925;-65
2023/05/05 08:39:23;;;;;;;;;;;;;;;;;;5086662;28;20355;-66
2023/05/05 08:41:49;;;;;;;;;;;;;;;;;;5089835;28;19953;-66
2023/05/05 08:44:45;;;;;;;;;;;;;;;;;;5080831;27;19924;-65
2023/05/05 08:47:11;;;;;;;;;;;;;;;;;;5079444;28;20003;-65
2023/05/05 08:49:36;;;;;;;;;;;;;;;;;;5077681;28;20273;-64
2023/05/05 08:52:02;;;;;;;;;;;;;;;;;;5069917;28;19935;-65
2023/05/05 08:54:53;;;;;;;;;;;;;;;;;;5088733;27;19920;-65
2023/05/05 08:57:19;;;;;;;;;;;;;;;;;;5074503;28;19988;-66
2023/05/05 08:59:45;;;;;;;;;;;;;;;;;;5076960;28;19912;-67
2023/05/05 09:04:28;;;;;;;;;;;;;;;;;;5057366;27;2299193;-65
2023/05/05 09:08:58;;;;;;;;;;;;;;;;;;5160360;27;19915;-67
2023/05/05 09:11:24;;;;;;;;;;;;;;;;;;5163507;27;19922;-67
2023/05/05 09:13:50;;;;;;;;;;;;;;;;;;5141209;27;19918;-68
2023/05/05 09:16:16;;;;;;;;;;;;;;;;;;5146980;27;20707;-67
2023/05/05 09:18:44;;;;;;;;;;;;;;;;;;5145835;27;19919;-66
2023/05/05 09:21:10;;;;;;;;;;;;;;;;;;5139411;27;20252;-67
2023/05/05 09:23:36;;;;;;;;;;;;;;;;;;5129864;27;19911;-66
2023/05/05 09:26:55;;;;;;;;;;;;;;;;;;5087434;28;19931;-65
2023/05/05 09:29:21;;;;;;;;;;;;;;;;;;5085644;28;19958;-65
2023/05/05 09:31:49;;;;;;;;;;;;;;;;;;5083814;28;19970;-65
2023/05/05 09:35:57;;;;;;;;;;;;;;;;;;5020874;27;3533660;-66
2023/05/05 09:38:22;;;;;;;;;;;;;;;;;;5141863;27;20414;-66
2023/05/05 09:40:48;;;;;;;;;;;;;;;;;;5137027;27;19946;-67
2023/05/05 09:46:27;;;;;;;;;;;;;;;;;;5079570;28;19916;-66
2023/05/05 09:48:53;;;;;;;;;;;;;;;;;;5081354;28;19935;-68
2023/05/05 09:51:19;;;;;;;;;;;;;;;;;;5077501;28;19915;-67
2023/05/05 09:53:45;;;;;;;;;;;;;;;;;;5087413;28;19988;-68
2023/05/05 09:56:11;;;;;;;;;;;;;;;;;;5082970;28;19915;-67
2023/05/05 10:00:36;;;;;;;;;;;;;;;;;;5129366;27;19922;-65
2023/05/05 10:03:56;;;;;;;;;;;;;;;;;;5088526;27;19922;-67
2023/05/05 10:06:22;;;;;;;;;;;;;;;;;;5077696;28;20007;-65
2023/05/05 10:08:48;;;;;;;;;;;;;;;;;;5085756;28;20344;-64
2023/05/05 10:11:14;;;;;;;;;;;;;;;;;;5086834;28;20229;-64
2023/05/05 10:13:43;;;;;;;;;;;;;;;;;;5086501;28;19947;-64
2023/05/05 10:16:09;;;;;;;;;;;;;;;;;;5081468;28;19916;-65
2023/05/05 10:18:35;;;;;;;;;;;;;;;;;;5088535;28;19913;-65
2023/05/05 10:21:01;;;;;;;;;;;;;;;;;;5083340;28;19931;-64
2023/05/05 10:23:27;;;;;;;;;;;;;;;;;;5085490;28;19921;-65
2023/05/05 10:28:00;;;;;;;;;;;;;;;;;;5090151;27;19924;-65
2023/05/05 10:30:26;;;;;;;;;;;;;;;;;;5083448;28;19916;-65
2023/05/05 10:34:05;;;;;;;;;;;;;;;;;;5089082;27;19927;-65
2023/05/05 10:36:31;;;;;;;;;;;;;;;;;;5088659;28;19913;-65
2023/05/05 10:38:57;;;;;;;;;;;;;;;;;;5090709;28;19955;-64
2023/05/05 10:41:23;;;;;;;;;;;;;;;;;;5089332;28;19913;-65
2023/05/05 10:43:49;;;;;;;;;;;;;;;;;;5084528;28;19917;-65
2023/05/05 10:48:01;;;;;;;;;;;;;;;;;;5087826;27;19923;-66
2023/05/05 10:51:30;;;;;;;;;;;;;;;;;;5088487;27;19920;-67
2023/05/05 10:56:18;;;;;;;;;;;;;;;;;;5110873;27;20384;-65
2023/05/05 10:59:19;;;;;;;;;;;;;;;;;;5074365;27;19921;-65
2023/05/05 11:01:45;;;;;;;;;;;;;;;;;;5062620;28;19940;-65
2023/05/05 11:04:11;;;;;;;;;;;;;;;;;;5086538;28;20280;-65
2023/05/05 11:06:37;;;;;;;;;;;;;;;;;;5088869;28;19961;-66
2023/05/05 11:09:06;;;;;;;;;;;;;;;;;;5072068;28;20365;-66
2023/05/05 11:11:32;;;;;;;;;;;;;;;;;;5069506;28;20395;-66
2023/05/05 11:13:58;;;;;;;;;;;;;;;;;;5067035;28;20011;-66
2023/05/05 11:16:24;;;;;;;;;;;;;;;;;;5066233;28;19991;-66
2023/05/05 11:18:50;;;;;;;;;;;;;;;;;;5066470;28;19940;-64
2023/05/05 11:21:16;;;;;;;;;;;;;;;;;;5067003;28;19970;-64
2023/05/05 11:23:42;;;;;;;;;;;;;;;;;;5065270;28;19924;-64
2023/05/05 11:28:28;;;;;;;;;;;;;;;;;;5108300;27;19916;-65
2023/05/05 11:30:57;;;;;;;;;;;;;;;;;;5107818;28;19916;-65
2023/05/05 11:33:24;;;;;;;;;;;;;;;;;;5108631;28;19996;-63
2023/05/05 11:35:50;;;;;;;;;;;;;;;;;;5106924;28;19922;-63
2023/05/05 11:38:16;;;;;;;;;;;;;;;;;;5107676;28;19908;-64
2023/05/05 11:40:42;;;;;;;;;;;;;;;;;;5108915;28;19951;-63
2023/05/05 11:43:08;;;;;;;;;;;;;;;;;;5108411;28;19935;-63
2023/05/05 11:45:34;;;;;;;;;;;;;;;;;;5108416;28;19916;-64
2023/05/05 11:48:00;;;;;;;;;;;;;;;;;;5109599;28;19916;-63
2023/05/05 11:50:26;;;;;;;;;;;;;;;;;;5111057;28;19918;-63
2023/05/05 11:52:51;;;;;;;;;;;;;;;;;;5109924;28;19908;-64
2023/05/05 11:55:17;;;;;;;;;;;;;;;;;;5110695;28;20054;-63
2023/05/05 11:57:43;;;;;;;;;;;;;;;;;;5110528;28;19912;-63
2023/05/05 12:00:09;;;;;;;;;;;;;;;;;;5110466;28;19915;-63
2023/05/05 12:03:20;;;;;;;;;;;;;;;;;;5145142;27;19925;-67
2023/05/05 12:07:12;;;;;;;;;;;;;;;;;;5089940;28;19926;-66
2023/05/05 12:09:38;;;;;;;;;;;;;;;;;;5069155;28;19912;-67
2023/05/05 12:12:04;;;;;;;;;;;;;;;;;;5070341;28;19909;-67
2023/05/05 12:14:32;;;;;;;;;;;;;;;;;;5075471;28;19928;-67
2023/05/05 12:17:01;;;;;;;;;;;;;;;;;;5074260;28;19908;-67
2023/05/05 12:19:31;;;;;;;;;;;;;;;;;;5070327;28;19913;-67
2023/05/05 12:21:57;;;;;;;;;;;;;;;;;;5071292;28;19915;-67
2023/05/05 12:24:23;;;;;;;;;;;;;;;;;;5088930;28;20007;-67
2023/05/05 12:26:49;;;;;;;;;;;;;;;;;;5089153;28;19923;-66
2023/05/05 12:29:16;;;;;;;;;;;;;;;;;;5071912;28;19979;-67
2023/05/05 12:31:42;;;;;;;;;;;;;;;;;;5088831;28;20117;-67
2023/05/05 12:34:08;;;;;;;;;;;;;;;;;;5088392;28;20024;-67
2023/05/05 12:36:53;;;;;;;;;;;;;;;;;;5109318;27;19912;-66
2023/05/05 12:39:19;;;;;;;;;;;;;;;;;;5108009;28;19919;-66
2023/05/05 12:41:45;;;;;;;;;;;;;;;;;;5107721;28;19934;-66
2023/05/05 12:44:11;;;;;;;;;;;;;;;;;;5107771;28;20428;-67
2023/05/05 12:46:37;;;;;;;;;;;;;;;;;;5109316;28;19925;-66
2023/05/05 12:49:05;;;;;;;;;;;;;;;;;;5110142;28;19962;-68
2023/05/05 12:51:31;;;;;;;;;;;;;;;;;;5110996;28;20345;-69
2023/05/05 12:53:57;;;;;;;;;;;;;;;;;;5111429;28;19934;-69
2023/05/05 12:56:23;;;;;;;;;;;;;;;;;;5111557;28;19960;-69
2023/05/05 12:58:49;;;;;;;;;;;;;;;;;;5111242;28;20379;-69
2023/05/05 13:01:15;;;;;;;;;;;;;;;;;;5110727;28;20006;-69
2023/05/05 13:03:41;;;;;;;;;;;;;;;;;;5111469;28;19915;-69
2023/05/05 13:06:07;;;;;;;;;;;;;;;;;;5111138;28;19908;-69
2023/05/05 13:08:33;;;;;;;;;;;;;;;;;;5110738;28;20261;-69
2023/05/05 13:10:59;;;;;;;;;;;;;;;;;;5111057;28;19908;-69
2023/05/05 13:13:25;;;;;;;;;;;;;;;;;;5111088;28;19931;-69
2023/05/05 13:15:51;;;;;;;;;;;;;;;;;;5110490;28;20363;-69
2023/05/05 13:18:17;;;;;;;;;;;;;;;;;;5111135;28;19908;-69
2023/05/05 13:20:43;;;;;;;;;;;;;;;;;;5110823;28;19954;-69
2023/05/05 13:23:09;;;;;;;;;;;;;;;;;;5110476;28;19934;-69
2023/05/05 13:25:35;;;;;;;;;;;;;;;;;;5109528;28;19908;-69
2023/05/05 13:28:01;;;;;;;;;;;;;;;;;;5110772;28;19991;-69
2023/05/05 13:30:27;;;;;;;;;;;;;;;;;;5109156;28;19966;-69
2023/05/05 13:32:53;;;;;;;;;;;;;;;;;;5110629;28;19908;-69
2023/05/05 13:35:19;;;;;;;;;;;;;;;;;;5109064;28;19920;-69
2023/05/05 13:37:46;;;;;;;;;;;;;;;;;;5110289;28;20025;-70
2023/05/05 13:40:12;;;;;;;;;;;;;;;;;;5110617;28;19951;-69
2023/05/05 13:42:38;;;;;;;;;;;;;;;;;;5110510;28;20363;-69
2023/05/05 13:45:04;;;;;;;;;;;;;;;;;;5109973;28;19908;-69
2023/05/05 13:47:30;;;;;;;;;;;;;;;;;;5100704;28;19915;-69
2023/05/05 13:49:56;;;;;;;;;;;;;;;;;;5096757;28;19909;-70
2023/05/05 13:52:22;;;;;;;;;;;;;;;;;;5096347;28;19908;-69
2023/05/05 13:54:48;;;;;;;;;;;;;;;;;;5096690;28;19988;-70
2023/05/05 13:57:14;;;;;;;;;;;;;;;;;;5096907;28;19958;-69
2023/05/05 13:59:39;;;;;;;;;;;;;;;;;;5096150;28;19908;-69
2023/05/05 14:02:06;;;;;;;;;;;;;;;;;;5096524;28;19909;-71
2023/05/05 14:04:32;;;;;;;;;;;;;;;;;;5096422;28;19947;-69
2023/05/05 14:06:58;;;;;;;;;;;;;;;;;;5096412;28;19948;-69
2023/05/05 14:09:34;;;;;;;;;;;;;;;;;;5092026;27;20368;-69
2023/05/05 14:11:59;;;;;;;;;;;;;;;;;;5090798;28;20015;-68
2023/05/05 14:14:25;;;;;;;;;;;;;;;;;;5090991;28;19909;-69
2023/05/05 14:16:51;;;;;;;;;;;;;;;;;;5091242;28;19909;-70
2023/05/05 14:19:17;;;;;;;;;;;;;;;;;;5090823;28;19916;-69
2023/05/05 14:21:43;;;;;;;;;;;;;;;;;;5089893;28;19927;-70
2023/05/05 14:30:07;;;;;;;;;;;;;;;;;;5091809;28;19919;-70
2023/05/05 14:32:33;;;;;;;;;;;;;;;;;;5091012;28;19999;-70
2023/05/05 14:35:36;;;;;;;;;;;;;;;;;;5091546;28;19939;-69
2023/05/05 14:38:02;;;;;;;;;;;;;;;;;;5091374;28;20044;-70
2023/05/05 14:40:29;;;;;;;;;;;;;;;;;;5090915;28;19915;-69
2023/05/05 14:42:55;;;;;;;;;;;;;;;;;;5090967;28;19908;-69
2023/05/05 14:45:21;;;;;;;;;;;;;;;;;;5091102;28;19961;-70
2023/05/05 14:48:09;;;;;;;;;;;;;;;;;;5090991;28;20383;-69
2023/05/05 14:50:35;;;;;;;;;;;;;;;;;;5090230;28;19999;-69
2023/05/05 14:53:01;;;;;;;;;;;;;;;;;;5091120;28;20317;-69
2023/05/05 14:55:27;;;;;;;;;;;;;;;;;;5090716;28;20387;-69
2023/05/05 14:57:53;;;;;;;;;;;;;;;;;;5091491;28;20238;-69
2023/05/05 15:00:19;;;;;;;;;;;;;;;;;;5089801;28;19916;-69
2023/05/05 15:02:46;;;;;;;;;;;;;;;;;;5089382;28;20150;-69
2023/05/05 15:05:12;;;;;;;;;;;;;;;;;;5089681;28;19908;-69
2023/05/05 15:07:38;;;;;;;;;;;;;;;;;;5088824;28;19916;-70
2023/05/05 15:10:04;;;;;;;;;;;;;;;;;;5089834;28;19908;-70
2023/05/05 15:12:31;;;;;;;;;;;;;;;;;;5090357;28;19915;-70
2023/05/05 15:14:56;;;;;;;;;;;;;;;;;;5089879;28;19913;-70
2023/05/05 15:17:23;;;;;;;;;;;;;;;;;;5090611;28;19908;-69
2023/05/05 15:19:49;;;;;;;;;;;;;;;;;;5090744;28;20364;-69
2023/05/05 15:22:15;;;;;;;;;;;;;;;;;;5088864;28;19909;-69
2023/05/05 15:24:41;;;;;;;;;;;;;;;;;;5090605;28;19916;-69
2023/05/05 15:27:07;;;;;;;;;;;;;;;;;;5090466;28;19920;-70
2023/05/05 15:29:33;;;;;;;;;;;;;;;;;;5089889;28;19908;-69
2023/05/05 15:31:59;;;;;;;;;;;;;;;;;;5090548;28;19969;-69
2023/05/05 15:34:25;;;;;;;;;;;;;;;;;;5090353;28;19912;-69
2023/05/05 15:36:51;;;;;;;;;;;;;;;;;;5090093;28;19908;-69
2023/05/05 15:39:17;;;;;;;;;;;;;;;;;;5090433;28;20418;-70
2023/05/05 15:41:43;;;;;;;;;;;;;;;;;;5090662;28;20285;-70
2023/05/05 15:44:09;;;;;;;;;;;;;;;;;;5090359;28;19924;-70
2023/05/05 15:46:35;;;;;;;;;;;;;;;;;;5097895;28;19920;-70
2023/05/05 15:49:01;;;;;;;;;;;;;;;;;;5111036;28;19953;-70
2023/05/05 15:51:27;;;;;;;;;;;;;;;;;;5110208;28;20257;-70
2023/05/05 15:53:53;;;;;;;;;;;;;;;;;;5110416;28;19915;-69
2023/05/05 15:56:19;;;;;;;;;;;;;;;;;;5110635;28;19908;-69
2023/05/05 15:58:45;;;;;;;;;;;;;;;;;;5100272;28;19984;-68
2023/05/05 16:01:11;;;;;;;;;;;;;;;;;;5096693;28;19908;-70
2023/05/05 16:03:37;;;;;;;;;;;;;;;;;;5096924;28;19919;-69
2023/05/05 16:06:03;;;;;;;;;;;;;;;;;;5096031;28;19912;-70
2023/05/05 16:08:29;;;;;;;;;;;;;;;;;;5096747;28;19912;-69
2023/05/05 16:10:55;;;;;;;;;;;;;;;;;;5096376;28;20011;-69
2023/05/05 16:13:21;;;;;;;;;;;;;;;;;;5096735;28;20305;-70
2023/05/05 16:15:48;;;;;;;;;;;;;;;;;;5096434;28;19946;-70
2023/05/05 16:18:14;;;;;;;;;;;;;;;;;;5096078;28;19920;-69
2023/05/05 16:20:40;;;;;;;;;;;;;;;;;;5096237;28;19909;-69
2023/05/05 16:23:06;;;;;;;;;;;;;;;;;;5096414;28;20388;-69
2023/05/05 16:25:32;;;;;;;;;;;;;;;;;;5095808;28;19908;-70
2023/05/05 16:30:01;;;;;;;;;;;;;;;;;;5091154;27;19916;-70
2023/05/05 16:34:28;;;;;;;;;;;;;;;;;;5087801;27;19935;-69
2023/05/05 16:40:09;;;;;;;;;;;;;;;;;;5090437;27;19912;-68
2023/05/05 16:43:58;;;;;;;;;;;;;;;;;;5090549;27;19916;-69
2023/05/05 16:46:24;;;;;;;;;;;;;;;;;;5090354;28;20452;-69
2023/05/05 16:50:16;;;;;;;;;;;;;;;;;;5090175;28;19918;-69
2023/05/05 16:52:42;;;;;;;;;;;;;;;;;;5091296;28;19958;-69
2023/05/05 16:57:33;;;;;;;;;;;;;;;;;;5090232;27;19917;-69
2023/05/05 16:59:58;;;;;;;;;;;;;;;;;;5090826;28;19947;-69
2023/05/05 17:02:24;;;;;;;;;;;;;;;;;;5090238;28;20257;-69
2023/05/05 17:04:50;;;;;;;;;;;;;;;;;;5089721;28;20326;-70
2023/05/05 17:07:16;;;;;;;;;;;;;;;;;;5090822;28;19909;-70
2023/05/05 17:12:56;;;;;;;;;;;;;;;;;;5092074;28;19917;-69
2023/05/05 17:18:28;;;;;;;;;;;;;;;;;;5091219;28;19923;-68
2023/05/05 17:22:57;;;;;;;;;;;;;;;;;;5091075;27;19922;-68
2023/05/05 17:30:54;;;;;;;;;;;;;;;;;;5071023;28;19923;-68
2023/05/05 17:33:20;;;;;;;;;;;;;;;;;;5071079;28;19912;-69
2023/05/05 17:38:52;;;;;;;;;;;;;;;;;;5088469;27;20281;-70
2023/05/05 17:42:50;;;;;;;;;;;;;;;;;;5090215;27;19917;-68
2023/05/05 17:48:18;;;;;;;;;;;;;;;;;;5091428;28;19922;-70
2023/05/05 17:51:47;;;;;;;;;;;;;;;;;;5091045;27;19923;-68
2023/05/05 17:54:13;;;;;;;;;;;;;;;;;;5091262;28;20355;-68
2023/05/05 17:56:39;;;;;;;;;;;;;;;;;;5090840;28;19962;-68
2023/05/05 17:59:05;;;;;;;;;;;;;;;;;;5091117;28;19915;-68
2023/05/05 18:03:32;;;;;;;;;;;;;;;;;;5152454;27;19912;-68
2023/05/05 18:05:58;;;;;;;;;;;;;;;;;;5134290;27;19912;-69
2023/05/05 18:10:20;;;;;;;;;;;;;;;;;;5091384;27;19919;-69
2023/05/05 18:12:46;;;;;;;;;;;;;;;;;;5090871;28;19966;-71